createdAt,value
2018-03-20T00:01:05.397Z,56.50
2018-03-20T00:03:36.195Z,57.82
2018-03-20T00:06:07.758Z,57.68
2018-03-20T00:08:41.300Z,57.71
2018-03-20T00:11:11.606Z,58.27
2018-03-20T00:13:41.716Z,57.78
2018-03-20T00:16:13.371Z,57.26
2018-03-20T00:18:45.397Z,56.72
2018-03-20T00:21:17.005Z,57.20
2018-03-20T00:23:48.836Z,58.12
2018-03-20T00:26:20.385Z,59.30
2018-03-20T00:28:55.652Z,59.57
2018-03-20T00:31:28.878Z,59.40
2018-03-20T00:34:01.989Z,59.07
2018-03-20T00:36:33.875Z,59.03
2018-03-20T00:39:04.605Z,58.49
2018-03-20T00:41:35.914Z,57.68
2018-03-20T00:44:11.477Z,57.64
2018-03-20T00:46:43.217Z,57.47
2018-03-20T00:49:15.401Z,57.71
2018-03-20T00:51:45.874Z,57.29
2018-03-20T00:54:16.826Z,56.60
2018-03-20T00:56:49.004Z,56.36
2018-03-20T00:59:20.456Z,56.40
2018-03-20T01:01:52.774Z,56.25
2018-03-20T01:04:26.157Z,56.68
2018-03-20T01:06:59.179Z,57.42
2018-03-20T01:09:30.026Z,57.47
2018-03-20T01:12:01.996Z,57.34
2018-03-20T01:14:33.644Z,57.95
2018-03-20T01:17:04.385Z,57.00
2018-03-20T01:19:37.247Z,56.88
2018-03-20T01:22:07.506Z,56.95
2018-03-20T01:24:38.499Z,57.24
2018-03-20T01:27:12.006Z,57.31
2018-03-20T01:29:43.562Z,57.25
2018-03-20T01:32:16.771Z,56.39
2018-03-20T01:34:49.006Z,56.61
2018-03-20T01:37:20.180Z,56.06
2018-03-20T01:39:50.945Z,56.06
2018-03-20T01:42:22.152Z,55.76
2018-03-20T01:44:53.778Z,55.39
2018-03-20T01:47:28.652Z,55.56
2018-03-20T01:50:04.542Z,56.00
2018-03-20T01:52:35.193Z,55.65
2018-03-20T01:55:07.249Z,56.56
2018-03-20T01:57:38.519Z,55.95
2018-03-20T02:00:11.081Z,56.12
2018-03-20T02:02:41.799Z,55.79
2018-03-20T02:05:15.880Z,55.37
2018-03-20T02:07:46.668Z,56.31
2018-03-20T02:10:17.918Z,57.49
2018-03-20T02:12:54.904Z,57.41
2018-03-20T02:15:25.061Z,57.41
2018-03-20T02:17:59.009Z,58.92
2018-03-20T02:20:30.861Z,57.58
2018-03-20T02:23:02.267Z,57.19
2018-03-20T02:25:33.243Z,57.12
2018-03-20T02:28:04.784Z,56.73
2018-03-20T02:30:35.848Z,56.74
2018-03-20T02:33:09.678Z,56.31
2018-03-20T02:35:40.621Z,56.31
2018-03-20T02:38:11.139Z,56.69
2018-03-20T02:40:45.772Z,56.70
2018-03-20T02:43:15.565Z,56.49
2018-03-20T02:45:53.676Z,56.33
2018-03-20T02:48:26.354Z,56.42
2018-03-20T02:50:58.579Z,57.21
2018-03-20T02:53:33.836Z,57.56
2018-03-20T02:56:05.989Z,57.24
2018-03-20T02:58:36.317Z,57.67
2018-03-20T03:01:07.428Z,57.12
2018-03-20T03:03:39.589Z,56.73
2018-03-20T03:06:09.872Z,57.28
2018-03-20T03:08:41.848Z,56.79
2018-03-20T03:11:12.313Z,57.24
2018-03-20T03:13:43.881Z,56.87
2018-03-20T03:16:14.884Z,57.14
2018-03-20T03:18:46.192Z,57.04
2018-03-20T03:21:20.246Z,57.31
2018-03-20T03:26:29.607Z,57.94
2018-03-20T03:29:00.640Z,57.79
2018-03-20T03:31:30.542Z,57.62
2018-03-20T03:34:00.606Z,59.12
2018-03-20T03:36:33.398Z,60.19
2018-03-20T03:39:06.741Z,59.14
2018-03-20T03:41:39.199Z,58.92
2018-03-20T03:44:10.943Z,58.22
2018-03-20T03:46:47.829Z,58.31
2018-03-20T03:49:21.262Z,57.56
2018-03-20T03:51:56.951Z,57.77
2018-03-20T03:54:27.115Z,57.89
2018-03-20T03:57:00.519Z,57.80
2018-03-20T03:59:31.000Z,57.16
2018-03-20T04:02:02.434Z,57.94
2018-03-20T04:04:32.887Z,58.07
2018-03-20T04:07:02.989Z,58.08
2018-03-20T04:09:33.200Z,58.62
2018-03-20T04:12:04.079Z,59.09
2018-03-20T04:14:35.583Z,60.12
2018-03-20T04:17:05.808Z,60.14
2018-03-20T04:19:39.085Z,59.82
2018-03-20T04:22:11.220Z,59.91
2018-03-20T04:24:43.497Z,59.79
2018-03-20T04:27:15.541Z,59.39
2018-03-20T04:29:46.346Z,59.16
2018-03-20T04:32:18.783Z,57.78
2018-03-20T04:34:50.475Z,57.77
2018-03-20T04:37:25.538Z,58.12
2018-03-20T04:40:00.001Z,58.40
2018-03-20T04:42:32.884Z,58.12
2018-03-20T04:45:04.927Z,57.17
2018-03-20T04:47:40.992Z,57.94
2018-03-20T04:50:14.414Z,57.78
2018-03-20T04:52:51.176Z,58.05
2018-03-20T04:55:23.967Z,58.45
2018-03-20T04:58:01.224Z,58.18
2018-03-20T05:00:48.674Z,58.08
2018-03-20T05:03:19.582Z,57.81
2018-03-20T05:05:52.505Z,57.30
2018-03-20T05:08:22.517Z,57.65
2018-03-20T05:10:55.703Z,57.81
2018-03-20T05:13:32.634Z,58.20
2018-03-20T05:16:07.329Z,58.10
2018-03-20T05:18:38.880Z,58.01
2018-03-20T05:21:14.803Z,57.37
2018-03-20T05:23:52.388Z,58.08
2018-03-20T05:26:25.195Z,57.31
2018-03-20T05:28:57.026Z,57.48
2018-03-20T05:31:29.727Z,57.71
2018-03-20T05:34:02.964Z,57.59
2018-03-20T05:36:37.634Z,56.97
2018-03-20T05:39:12.672Z,57.50
2018-03-20T05:41:47.334Z,57.40
2018-03-20T05:44:20.745Z,57.00
2018-03-20T05:50:00.399Z,57.86
2018-03-20T05:52:37.863Z,58.08
2018-03-20T05:55:09.396Z,58.36
2018-03-20T05:57:40.118Z,57.67
2018-03-20T06:00:12.920Z,58.36
2018-03-20T06:02:44.229Z,58.83
2018-03-20T06:05:14.706Z,57.16
2018-03-20T06:07:44.916Z,57.33
2018-03-20T06:10:17.632Z,57.51
2018-03-20T06:12:49.828Z,56.99
2018-03-20T06:15:22.633Z,56.80
2018-03-20T06:17:56.314Z,55.86
2018-03-20T06:20:31.871Z,55.13
2018-03-20T06:23:19.019Z,55.20
2018-03-20T06:25:57.233Z,56.16
2018-03-20T06:28:28.155Z,55.35
2018-03-20T06:31:02.172Z,56.00
2018-03-20T06:36:18.142Z,55.91
2018-03-20T06:38:48.799Z,54.47
2018-03-20T06:41:24.086Z,55.14
2018-03-20T06:43:56.311Z,54.68
2018-03-20T06:46:27.766Z,54.11
2018-03-20T06:49:08.753Z,54.63
2018-03-20T06:51:44.079Z,55.51
2018-03-20T06:54:16.479Z,55.80
2018-03-20T06:56:50.529Z,54.89
2018-03-20T06:59:20.747Z,55.59
2018-03-20T07:01:50.934Z,57.20
2018-03-20T07:04:23.331Z,56.11
2018-03-20T07:06:54.190Z,56.31
2018-03-20T07:09:33.491Z,54.68
2018-03-20T07:12:04.756Z,55.40
2018-03-20T07:14:35.824Z,53.79
2018-03-20T07:17:05.793Z,54.07
2018-03-20T07:19:38.553Z,52.84
2018-03-20T07:22:12.628Z,52.63
2018-03-20T07:24:45.280Z,50.65
2018-03-20T07:27:20.189Z,51.58
2018-03-20T07:29:56.262Z,50.73
2018-03-20T07:32:27.506Z,51.37
2018-03-20T07:34:58.701Z,50.64
2018-03-20T07:40:45.255Z,52.09
2018-03-20T07:43:17.447Z,52.31
2018-03-20T07:45:47.638Z,50.71
2018-03-20T07:48:33.478Z,51.22
2018-03-20T07:51:08.051Z,51.89
2018-03-20T07:53:38.153Z,52.31
2018-03-20T07:56:09.115Z,51.80
2018-03-20T07:58:41.293Z,52.01
2018-03-20T08:01:14.128Z,51.97
2018-03-20T08:03:45.093Z,51.16
2018-03-20T08:06:22.464Z,52.42
2018-03-20T08:08:54.199Z,51.66
2018-03-20T08:11:25.996Z,52.02
2018-03-20T08:13:59.847Z,52.13
2018-03-20T08:16:30.772Z,50.45
2018-03-20T08:19:01.156Z,51.48
2018-03-20T08:21:33.947Z,51.06
2018-03-20T08:24:05.639Z,51.34
2018-03-20T08:26:37.162Z,50.79
2018-03-20T08:29:07.941Z,50.21
2018-03-20T08:31:38.764Z,50.78
2018-03-20T08:34:12.981Z,51.79
2018-03-20T08:36:44.888Z,50.28
2018-03-20T08:39:18.162Z,50.68
2018-03-20T08:41:48.255Z,51.10
2018-03-20T08:44:19.153Z,50.90
2018-03-20T08:46:52.454Z,50.10
2018-03-20T08:49:22.631Z,50.15
2018-03-20T08:51:55.746Z,48.61
2018-03-20T08:54:29.059Z,49.92
2018-03-20T08:57:00.098Z,50.05
2018-03-20T08:59:31.307Z,48.90
2018-03-20T09:02:04.937Z,49.15
2018-03-20T09:04:36.006Z,49.10
2018-03-20T09:07:07.590Z,49.32
2018-03-20T09:09:38.489Z,48.87
2018-03-20T09:12:09.416Z,48.78
2018-03-20T09:14:43.657Z,47.77
2018-03-20T09:17:15.872Z,47.89
2018-03-20T09:19:47.519Z,48.78
2018-03-20T09:22:17.553Z,47.72
2018-03-20T09:24:47.705Z,46.99
2018-03-20T09:27:22.704Z,47.66
2018-03-20T09:29:54.699Z,46.13
2018-03-20T09:32:27.224Z,46.88
2018-03-20T09:35:00.638Z,45.98
2018-03-20T09:37:34.097Z,46.41
2018-03-20T09:40:05.229Z,45.98
2018-03-20T09:42:36.519Z,46.92
2018-03-20T09:45:08.829Z,48.01
2018-03-20T09:47:39.153Z,47.85
2018-03-20T09:50:15.483Z,49.46
2018-03-20T09:52:48.651Z,49.36
2018-03-20T09:55:19.824Z,48.35
2018-03-20T09:57:52.041Z,48.26
2018-03-20T10:00:23.623Z,47.83
2018-03-20T10:02:56.511Z,47.62
2018-03-20T10:05:32.399Z,48.35
2018-03-20T10:08:03.749Z,47.08
2018-03-20T10:10:43.958Z,46.73
2018-03-20T10:13:17.141Z,49.17
2018-03-20T10:15:50.222Z,47.16
2018-03-20T10:18:21.772Z,47.75
2018-03-20T10:20:51.781Z,49.46
2018-03-20T10:23:24.583Z,50.66
2018-03-20T10:25:58.902Z,50.83
2018-03-20T10:28:34.666Z,50.87
2018-03-20T10:31:05.893Z,48.15
2018-03-20T10:33:35.978Z,49.34
2018-03-20T10:36:13.519Z,48.81
2018-03-20T10:38:45.684Z,50.10
2018-03-20T10:41:18.376Z,48.72
2018-03-20T10:43:49.767Z,49.26
2018-03-20T10:46:19.996Z,48.10
2018-03-20T10:48:52.133Z,47.00
2018-03-20T10:51:23.909Z,47.94
2018-03-20T10:53:57.093Z,47.17
2018-03-20T10:56:29.641Z,47.18
2018-03-20T10:59:02.699Z,49.12
2018-03-20T11:01:41.430Z,48.72
2018-03-20T11:04:15.200Z,48.58
2018-03-20T11:06:46.250Z,48.64
2018-03-20T11:09:20.693Z,48.57
2018-03-20T11:11:50.942Z,47.23
2018-03-20T11:14:21.540Z,47.31
2018-03-20T11:16:52.878Z,48.29
2018-03-20T11:19:26.704Z,48.08
2018-03-20T11:21:58.627Z,47.45
2018-03-20T11:24:35.400Z,46.61
2018-03-20T11:27:06.450Z,46.62
2018-03-20T11:29:37.549Z,47.04
2018-03-20T11:32:07.421Z,47.07
2018-03-20T11:34:38.856Z,46.96
2018-03-20T11:37:09.619Z,46.77
2018-03-20T11:39:42.511Z,47.06
2018-03-20T11:42:17.430Z,47.88
2018-03-20T11:44:48.954Z,49.31
2018-03-20T11:47:20.326Z,49.55
2018-03-20T11:49:52.133Z,49.66
2018-03-20T11:52:24.878Z,50.04
2018-03-20T11:55:01.111Z,47.95
2018-03-20T11:57:38.362Z,47.91
2018-03-20T12:00:12.628Z,47.34
2018-03-20T12:02:42.418Z,48.37
2018-03-20T12:05:16.485Z,48.63
2018-03-20T12:07:57.429Z,49.48
2018-03-20T12:10:28.808Z,48.40
2018-03-20T12:13:01.444Z,49.44
2018-03-20T12:15:32.932Z,47.35
2018-03-20T12:18:04.065Z,48.00
2018-03-20T12:20:35.167Z,47.71
2018-03-20T12:23:06.124Z,47.11
2018-03-20T12:25:42.112Z,46.79
2018-03-20T12:28:14.627Z,47.29
2018-03-20T12:30:47.029Z,44.85
2018-03-20T12:33:17.257Z,45.82
2018-03-20T12:35:49.295Z,45.35
2018-03-20T12:38:19.206Z,47.25
2018-03-20T12:40:51.836Z,46.05
2018-03-20T12:43:25.385Z,46.91
2018-03-20T12:45:57.100Z,47.05
2018-03-20T12:48:29.145Z,46.80
2018-03-20T12:51:03.171Z,45.43
2018-03-20T12:53:32.585Z,46.71
2018-03-20T12:56:02.752Z,45.84
2018-03-20T12:58:33.320Z,45.66
2018-03-20T13:01:02.840Z,45.89
2018-03-20T13:03:34.330Z,45.64
2018-03-20T13:06:05.767Z,44.03
2018-03-20T13:08:36.272Z,44.24
2018-03-20T13:11:07.751Z,45.51
2018-03-20T13:13:37.716Z,46.60
2018-03-20T13:16:12.261Z,45.43
2018-03-20T13:18:45.514Z,45.27
2018-03-20T13:21:19.417Z,44.86
2018-03-20T13:23:51.207Z,43.63
2018-03-20T13:26:21.061Z,43.85
2018-03-20T13:28:54.154Z,44.20
2018-03-20T13:31:27.141Z,43.89
2018-03-20T13:33:57.784Z,44.14
2018-03-20T13:36:28.047Z,44.59
2018-03-20T13:38:59.683Z,45.49
2018-03-20T13:41:31.004Z,46.23
2018-03-20T13:44:01.723Z,44.79
2018-03-20T13:46:31.877Z,45.59
2018-03-20T13:49:03.437Z,44.09
2018-03-20T13:51:36.896Z,44.17
2018-03-20T13:54:15.655Z,44.42
2018-03-20T13:56:52.502Z,43.40
2018-03-20T13:59:26.291Z,43.36
2018-03-20T14:02:04.693Z,43.58
2018-03-20T14:04:36.940Z,44.32
2018-03-20T14:07:07.977Z,44.94
2018-03-20T14:09:40.636Z,45.79
2018-03-20T14:12:13.614Z,46.93
2018-03-20T14:14:43.732Z,48.43
2018-03-20T14:17:13.750Z,47.43
2018-03-20T14:19:49.503Z,47.65
2018-03-20T14:22:19.456Z,47.92
2018-03-20T14:24:50.195Z,48.29
2018-03-20T14:27:21.914Z,46.67
2018-03-20T14:29:59.463Z,45.71
2018-03-20T14:32:33.201Z,45.21
2018-03-20T14:35:04.060Z,45.90
2018-03-20T14:37:38.670Z,46.00
2018-03-20T14:40:17.533Z,46.54
2018-03-20T14:42:52.826Z,45.22
2018-03-20T14:45:25.738Z,45.55
2018-03-20T14:48:01.373Z,48.94
2018-03-20T14:50:34.078Z,49.09
2018-03-20T14:53:05.834Z,46.82
2018-03-20T14:55:37.030Z,46.33
2018-03-20T14:58:08.577Z,46.92
2018-03-20T15:00:42.982Z,46.83
2018-03-20T15:03:15.231Z,45.03
2018-03-20T15:05:51.560Z,45.55
2018-03-20T15:08:23.263Z,44.27
2018-03-20T15:10:58.766Z,44.98
2018-03-20T15:13:29.656Z,44.83
2018-03-20T15:16:00.964Z,46.27
2018-03-20T15:18:35.578Z,45.64
2018-03-20T15:21:12.585Z,45.35
2018-03-20T15:23:45.463Z,43.94
2018-03-20T15:26:16.888Z,44.67
2018-03-20T15:28:48.811Z,46.08
2018-03-20T15:31:20.339Z,46.11
2018-03-20T15:33:56.356Z,47.03
2018-03-20T15:36:28.628Z,47.79
2018-03-20T15:39:01.352Z,46.37
2018-03-20T15:41:31.868Z,47.31
2018-03-20T15:44:06.919Z,47.49
2018-03-20T15:46:38.415Z,46.49
2018-03-20T15:49:10.473Z,45.14
2018-03-20T15:51:46.518Z,46.14
2018-03-20T15:54:17.261Z,45.40
2018-03-20T15:56:47.887Z,46.26
2018-03-20T15:59:18.590Z,46.42
2018-03-20T16:01:50.148Z,46.75
2018-03-20T16:04:26.879Z,46.61
2018-03-20T16:07:04.560Z,46.10
2018-03-20T16:09:38.717Z,46.62
2018-03-20T16:12:12.403Z,46.64
2018-03-20T16:14:46.531Z,47.00
2018-03-20T16:17:39.073Z,46.66
2018-03-20T16:20:11.970Z,48.39
2018-03-20T16:22:45.564Z,50.42
2018-03-20T16:25:17.660Z,50.34
2018-03-20T16:27:50.878Z,51.17
2018-03-20T16:30:21.101Z,50.70
2018-03-20T16:32:52.221Z,51.32
2018-03-20T16:35:23.147Z,51.30
2018-03-20T16:37:57.313Z,50.47
2018-03-20T16:40:29.047Z,50.30
2018-03-20T16:43:02.068Z,51.01
2018-03-20T16:45:32.959Z,51.33
2018-03-20T16:48:06.156Z,51.53
2018-03-20T16:50:38.274Z,51.61
2018-03-20T16:53:10.121Z,51.18
2018-03-20T16:55:41.777Z,50.85
2018-03-20T16:58:13.862Z,50.09
2018-03-20T17:00:45.679Z,51.74
2018-03-20T17:03:19.947Z,52.67
2018-03-20T17:05:54.389Z,52.27
2018-03-20T17:08:26.647Z,51.82
2018-03-20T17:11:02.257Z,52.25
2018-03-20T17:13:37.869Z,53.06
2018-03-20T17:16:10.148Z,53.01
2018-03-20T17:18:45.022Z,53.17
2018-03-20T17:21:17.179Z,53.39
2018-03-20T17:23:51.596Z,52.73
2018-03-20T17:26:27.355Z,52.27
2018-03-20T17:29:01.248Z,52.51
2018-03-20T17:31:33.909Z,54.00
2018-03-20T17:34:06.902Z,54.45
2018-03-20T17:36:39.347Z,54.17
2018-03-20T17:39:15.267Z,54.11
2018-03-20T17:41:46.933Z,53.97
2018-03-20T17:44:19.547Z,53.18
2018-03-20T17:46:51.839Z,53.47
2018-03-20T17:49:24.801Z,53.97
2018-03-20T17:51:57.573Z,53.84
2018-03-20T17:54:32.541Z,55.25
2018-03-20T17:57:07.195Z,55.79
2018-03-20T17:59:43.370Z,54.84
2018-03-20T18:02:17.926Z,53.96
2018-03-20T18:05:00.558Z,52.98
2018-03-20T18:07:38.482Z,52.92
2018-03-20T18:10:15.189Z,53.25
2018-03-20T18:12:55.407Z,52.50
2018-03-20T18:15:31.884Z,53.06
2018-03-20T18:18:11.039Z,52.43
2018-03-20T18:20:47.450Z,53.20
2018-03-20T18:23:30.538Z,53.26
2018-03-20T18:26:15.841Z,52.37
2018-03-20T18:28:50.861Z,52.84
2018-03-20T18:31:44.800Z,53.46
2018-03-20T18:34:20.718Z,53.52
2018-03-20T18:37:06.224Z,53.17
2018-03-20T18:39:44.490Z,52.67
2018-03-20T18:42:21.954Z,52.90
2018-03-20T18:44:57.468Z,53.47
2018-03-20T18:47:41.428Z,53.55
2018-03-20T18:50:20.022Z,53.57
2018-03-20T18:52:59.616Z,53.75
2018-03-20T18:55:31.442Z,54.28
2018-03-20T18:58:03.633Z,54.46
2018-03-20T19:00:34.064Z,54.37
2018-03-20T19:03:11.464Z,54.43
2018-03-20T19:05:44.527Z,55.22
2018-03-20T19:08:15.827Z,55.39
2018-03-20T19:10:48.234Z,55.60
2018-03-20T19:13:20.626Z,56.07
2018-03-20T19:16:01.362Z,57.39
2018-03-20T19:18:32.196Z,57.60
2018-03-20T19:21:04.110Z,56.87
2018-03-20T19:23:38.240Z,56.65
2018-03-20T19:26:09.381Z,56.30
2018-03-20T19:28:43.317Z,55.72
2018-03-20T19:31:13.957Z,55.16
2018-03-20T19:33:47.702Z,55.08
2018-03-20T19:36:19.666Z,55.10
2018-03-20T19:38:50.113Z,54.94
2018-03-20T19:41:21.157Z,55.50
2018-03-20T19:43:52.370Z,56.60
2018-03-20T19:46:23.446Z,56.66
2018-03-20T19:48:55.504Z,56.11
2018-03-20T19:51:31.342Z,56.25
2018-03-20T19:54:01.561Z,57.62
2018-03-20T19:56:31.782Z,57.30
2018-03-20T19:59:04.002Z,56.71
2018-03-20T20:01:34.971Z,56.28
2018-03-20T20:04:05.835Z,56.35
2018-03-20T20:06:39.444Z,56.04
2018-03-20T20:09:09.958Z,55.25
2018-03-20T20:11:43.659Z,55.19
2018-03-20T20:14:17.751Z,55.41
2018-03-20T20:16:48.957Z,57.73
2018-03-20T20:19:19.137Z,57.62
2018-03-20T20:21:51.308Z,56.35
2018-03-20T20:24:25.100Z,56.88
2018-03-20T20:26:56.635Z,55.22
2018-03-20T20:29:27.471Z,55.39
2018-03-20T20:31:58.975Z,55.53
2018-03-20T20:34:30.016Z,55.83
2018-03-20T20:37:05.792Z,54.72
2018-03-20T20:39:37.734Z,55.34
2018-03-20T20:42:09.963Z,55.95
2018-03-20T20:44:39.851Z,57.81
2018-03-20T20:47:14.555Z,58.08
2018-03-20T20:49:47.465Z,57.23
2018-03-20T20:52:20.740Z,56.72
2018-03-20T20:55:00.981Z,57.68
2018-03-20T20:57:31.740Z,59.29
2018-03-20T21:00:01.561Z,59.92
2018-03-20T21:02:32.411Z,59.10
2018-03-20T21:05:10.729Z,58.44
2018-03-20T21:07:41.405Z,57.98
2018-03-20T21:10:15.918Z,57.93
2018-03-20T21:12:48.081Z,58.71
2018-03-20T21:15:19.701Z,59.31
2018-03-20T21:17:55.109Z,59.79
2018-03-20T21:20:27.858Z,59.94
2018-03-20T21:23:05.112Z,58.93
2018-03-20T21:25:35.728Z,58.19
2018-03-20T21:28:06.068Z,58.22
2018-03-20T21:30:37.538Z,57.52
2018-03-20T21:33:08.428Z,56.47
2018-03-20T21:35:40.467Z,56.09
2018-03-20T21:38:10.964Z,56.24
2018-03-20T21:40:41.844Z,56.32
2018-03-20T21:43:12.417Z,56.33
2018-03-20T21:45:43.510Z,56.56
2018-03-20T21:48:15.367Z,57.92
2018-03-20T21:50:49.126Z,58.85
2018-03-20T21:53:20.746Z,59.58
2018-03-20T21:55:52.142Z,58.79
2018-03-20T21:58:25.970Z,58.08
2018-03-20T22:01:00.249Z,57.43
2018-03-20T22:03:32.381Z,56.88
2018-03-20T22:06:03.378Z,57.00
2018-03-20T22:08:38.068Z,57.21
2018-03-20T22:11:11.616Z,56.99
2018-03-20T22:13:41.330Z,57.00
2018-03-20T22:16:12.889Z,56.94
2018-03-20T22:18:45.488Z,56.73
2018-03-20T22:21:17.620Z,56.92
2018-03-20T22:23:49.338Z,57.23
2018-03-20T22:26:20.347Z,57.35
2018-03-20T22:28:52.734Z,57.04
2018-03-20T22:31:25.447Z,57.06
2018-03-20T22:33:58.866Z,56.58
2018-03-20T22:36:28.840Z,56.54
2018-03-20T22:38:59.618Z,56.60
2018-03-20T22:41:36.745Z,56.79
2018-03-20T22:44:06.467Z,56.81
2018-03-20T22:46:38.123Z,56.56
2018-03-20T22:49:11.863Z,56.51
2018-03-20T22:51:43.881Z,56.25
2018-03-20T22:54:16.720Z,56.11
2018-03-20T22:56:52.672Z,56.17
2018-03-20T22:59:25.215Z,56.31
2018-03-20T23:01:59.781Z,57.12
2018-03-20T23:04:29.677Z,57.54
2018-03-20T23:07:00.830Z,57.31
2018-03-20T23:09:33.553Z,58.17
2018-03-20T23:12:09.568Z,58.87
2018-03-20T23:14:41.882Z,58.33
2018-03-20T23:17:11.359Z,57.69
2018-03-20T23:19:44.549Z,57.37
2018-03-20T23:22:15.402Z,57.78
2018-03-20T23:24:49.975Z,58.61
2018-03-20T23:27:20.361Z,57.90
2018-03-20T23:29:50.657Z,58.10
2018-03-20T23:32:20.965Z,59.95
2018-03-20T23:34:56.222Z,61.49
2018-03-20T23:37:29.612Z,60.65
2018-03-20T23:40:06.801Z,61.08
2018-03-20T23:42:37.909Z,61.36
2018-03-20T23:45:11.145Z,61.22
2018-03-20T23:47:51.999Z,61.89
2018-03-20T23:50:23.372Z,61.44
2018-03-20T23:52:58.863Z,60.72
2018-03-20T23:55:35.536Z,61.36
2018-03-20T23:58:07.580Z,59.90
